sensor_id;sensor_type;location;lat;lon;timestamp;P1;durP1;ratioP1;P2;durP2;ratioP2
10078;SDS011;5078;42.544;22.966;2024-03-23T00:55:33;16.92;;;12.82;;
10078;SDS011;5078;42.544;22.966;2024-03-23T00:58:00;17.25;;;12.63;;
10078;SDS011;5078;42.544;22.966;2024-03-23T01:00:25;18.98;;;12.93;;
10078;SDS011;5078;42.544;22.966;2024-03-23T01:02:52;22.80;;;14.55;;
10078;SDS011;5078;42.544;22.966;2024-03-23T01:05:18;21.65;;;14.95;;
10078;SDS011;5078;42.544;22.966;2024-03-23T01:07:45;19.33;;;13.70;;
10078;SDS011;5078;42.544;22.966;2024-03-23T01:10:11;19.52;;;13.75;;
10078;SDS011;5078;42.544;22.966;2024-03-23T01:12:39;24.50;;;14.32;;
10078;SDS011;5078;42.544;22.966;2024-03-23T01:15:06;21.60;;;14.32;;
10078;SDS011;5078;42.544;22.966;2024-03-23T01:17:31;22.33;;;14.45;;
10078;SDS011;5078;42.544;22.966;2024-03-23T01:19:58;21.92;;;14.90;;
10078;SDS011;5078;42.544;22.966;2024-03-23T01:22:24;26.10;;;16.45;;
10078;SDS011;5078;42.544;22.966;2024-03-23T01:24:51;25.40;;;16.85;;
10078;SDS011;5078;42.544;22.966;2024-03-23T01:27:17;23.38;;;15.63;;
10078;SDS011;5078;42.544;22.966;2024-03-23T01:29:45;21.52;;;15.75;;
10078;SDS011;5078;42.544;22.966;2024-03-23T01:32:11;21.20;;;15.40;;
10078;SDS011;5078;42.544;22.966;2024-03-23T01:34:38;30.23;;;18.90;;
10078;SDS011;5078;42.544;22.966;2024-03-23T01:37:03;29.65;;;18.02;;
10078;SDS011;5078;42.544;22.966;2024-03-23T01:39:30;31.48;;;18.25;;
10078;SDS011;5078;42.544;22.966;2024-03-23T01:41:56;27.98;;;17.00;;
10078;SDS011;5078;42.544;22.966;2024-03-23T01:44:22;27.17;;;17.47;;
10078;SDS011;5078;42.544;22.966;2024-03-23T01:46:49;29.23;;;17.73;;
10078;SDS011;5078;42.544;22.966;2024-03-23T01:49:16;28.73;;;17.48;;
10078;SDS011;5078;42.544;22.966;2024-03-23T01:51:43;27.20;;;16.80;;
10078;SDS011;5078;42.544;22.966;2024-03-23T01:54:13;26.70;;;16.85;;
10078;SDS011;5078;42.544;22.966;2024-03-23T01:56:39;23.77;;;15.50;;
10078;SDS011;5078;42.544;22.966;2024-03-23T01:59:05;25.63;;;15.80;;
10078;SDS011;5078;42.544;22.966;2024-03-23T02:01:32;24.00;;;15.88;;
10078;SDS011;5078;42.544;22.966;2024-03-23T02:04:00;28.33;;;17.10;;
10078;SDS011;5078;42.544;22.966;2024-03-23T02:06:26;27.98;;;19.08;;
10078;SDS011;5078;42.544;22.966;2024-03-23T02:08:53;32.47;;;18.60;;
10078;SDS011;5078;42.544;22.966;2024-03-23T02:11:19;28.77;;;17.67;;
10078;SDS011;5078;42.544;22.966;2024-03-23T02:13:46;25.55;;;16.63;;
10078;SDS011;5078;42.544;22.966;2024-03-23T02:16:12;26.98;;;16.08;;
10078;SDS011;5078;42.544;22.966;2024-03-23T02:18:39;27.52;;;15.10;;
10078;SDS011;5078;42.544;22.966;2024-03-23T02:21:06;19.75;;;13.57;;
10078;SDS011;5078;42.544;22.966;2024-03-23T02:23:34;22.00;;;13.45;;
10078;SDS011;5078;42.544;22.966;2024-03-23T02:26:00;20.80;;;13.87;;
10078;SDS011;5078;42.544;22.966;2024-03-23T02:28:26;22.20;;;13.23;;
10078;SDS011;5078;42.544;22.966;2024-03-23T02:30:52;21.37;;;14.07;;
10078;SDS011;5078;42.544;22.966;2024-03-23T02:33:19;18.77;;;12.17;;
10078;SDS011;5078;42.544;22.966;2024-03-23T02:35:45;16.37;;;12.20;;
10078;SDS011;5078;42.544;22.966;2024-03-23T02:38:12;18.17;;;12.20;;
10078;SDS011;5078;42.544;22.966;2024-03-23T02:40:39;20.07;;;12.43;;
10078;SDS011;5078;42.544;22.966;2024-03-23T02:43:06;15.60;;;11.97;;
10078;SDS011;5078;42.544;22.966;2024-03-23T02:45:31;20.27;;;12.57;;
10078;SDS011;5078;42.544;22.966;2024-03-23T02:47:58;18.80;;;12.67;;
10078;SDS011;5078;42.544;22.966;2024-03-23T02:50:24;18.13;;;12.00;;
10078;SDS011;5078;42.544;22.966;2024-03-23T02:52:50;19.77;;;12.83;;
10078;SDS011;5078;42.544;22.966;2024-03-23T02:55:18;16.67;;;12.43;;
10078;SDS011;5078;42.544;22.966;2024-03-23T02:57:46;18.23;;;13.33;;
10078;SDS011;5078;42.544;22.966;2024-03-23T03:00:12;18.77;;;12.43;;
10078;SDS011;5078;42.544;22.966;2024-03-23T03:02:39;18.10;;;12.27;;
10078;SDS011;5078;42.544;22.966;2024-03-23T03:05:07;18.97;;;12.57;;
10078;SDS011;5078;42.544;22.966;2024-03-23T03:07:37;19.40;;;12.47;;
10078;SDS011;5078;42.544;22.966;2024-03-23T03:10:06;18.33;;;12.47;;
10078;SDS011;5078;42.544;22.966;2024-03-23T03:12:43;20.60;;;12.27;;
10078;SDS011;5078;42.544;22.966;2024-03-23T03:15:10;18.70;;;13.40;;
10078;SDS011;5078;42.544;22.966;2024-03-23T03:17:37;18.77;;;12.67;;
10078;SDS011;5078;42.544;22.966;2024-03-23T03:20:03;20.97;;;12.60;;
10078;SDS011;5078;42.544;22.966;2024-03-23T03:22:31;14.90;;;11.53;;
10078;SDS011;5078;42.544;22.966;2024-03-23T03:24:57;17.80;;;12.70;;
10078;SDS011;5078;42.544;22.966;2024-03-23T03:27:25;17.47;;;13.20;;
10078;SDS011;5078;42.544;22.966;2024-03-23T03:29:51;19.37;;;13.30;;
10078;SDS011;5078;42.544;22.966;2024-03-23T03:32:19;20.47;;;13.40;;
10078;SDS011;5078;42.544;22.966;2024-03-23T03:34:44;19.27;;;12.17;;
10078;SDS011;5078;42.544;22.966;2024-03-23T03:37:11;22.07;;;12.87;;
10078;SDS011;5078;42.544;22.966;2024-03-23T03:39:37;17.75;;;12.77;;
10078;SDS011;5078;42.544;22.966;2024-03-23T03:42:04;26.67;;;14.23;;
10078;SDS011;5078;42.544;22.966;2024-03-23T03:44:32;21.73;;;14.50;;
10078;SDS011;5078;42.544;22.966;2024-03-23T03:47:00;18.97;;;14.47;;
10078;SDS011;5078;42.544;22.966;2024-03-23T03:49:27;23.33;;;15.03;;
10078;SDS011;5078;42.544;22.966;2024-03-23T03:51:54;21.87;;;13.80;;
10078;SDS011;5078;42.544;22.966;2024-03-23T03:54:20;22.53;;;14.30;;
10078;SDS011;5078;42.544;22.966;2024-03-23T03:56:47;20.47;;;13.90;;
10078;SDS011;5078;42.544;22.966;2024-03-23T03:59:13;20.00;;;13.97;;
10078;SDS011;5078;42.544;22.966;2024-03-23T04:01:39;19.83;;;13.23;;
10078;SDS011;5078;42.544;22.966;2024-03-23T04:04:05;18.63;;;13.17;;
10078;SDS011;5078;42.544;22.966;2024-03-23T04:06:33;18.40;;;12.87;;
10078;SDS011;5078;42.544;22.966;2024-03-23T04:08:59;19.60;;;12.83;;
10078;SDS011;5078;42.544;22.966;2024-03-23T04:11:26;20.73;;;15.03;;
10078;SDS011;5078;42.544;22.966;2024-03-23T04:14:00;22.97;;;13.83;;
10078;SDS011;5078;42.544;22.966;2024-03-23T04:16:26;24.47;;;14.77;;
10078;SDS011;5078;42.544;22.966;2024-03-23T04:18:53;19.37;;;14.10;;
10078;SDS011;5078;42.544;22.966;2024-03-23T04:21:19;18.50;;;13.23;;
10078;SDS011;5078;42.544;22.966;2024-03-23T04:23:47;19.73;;;13.10;;
10078;SDS011;5078;42.544;22.966;2024-03-23T04:26:13;17.77;;;13.23;;
10078;SDS011;5078;42.544;22.966;2024-03-23T04:28:41;22.60;;;14.40;;
10078;SDS011;5078;42.544;22.966;2024-03-23T04:31:08;19.33;;;13.37;;
10078;SDS011;5078;42.544;22.966;2024-03-23T04:33:34;19.87;;;13.97;;
10078;SDS011;5078;42.544;22.966;2024-03-23T04:36:00;21.43;;;14.07;;
10078;SDS011;5078;42.544;22.966;2024-03-23T04:38:27;22.80;;;14.67;;
10078;SDS011;5078;42.544;22.966;2024-03-23T04:40:56;25.33;;;14.43;;
10078;SDS011;5078;42.544;22.966;2024-03-23T04:43:23;23.07;;;13.50;;
10078;SDS011;5078;42.544;22.966;2024-03-23T04:45:49;20.70;;;14.05;;
10078;SDS011;5078;42.544;22.966;2024-03-23T04:48:16;22.45;;;14.70;;
10078;SDS011;5078;42.544;22.966;2024-03-23T04:50:44;20.43;;;14.57;;
10078;SDS011;5078;42.544;22.966;2024-03-23T04:53:11;22.93;;;15.20;;
10078;SDS011;5078;42.544;22.966;2024-03-23T04:55:37;18.73;;;12.37;;
10078;SDS011;5078;42.544;22.966;2024-03-23T04:58:05;18.67;;;13.37;;
10078;SDS011;5078;42.544;22.966;2024-03-23T05:00:32;21.40;;;12.83;;
10078;SDS011;5078;42.544;22.966;2024-03-23T05:02:57;18.37;;;13.17;;
10078;SDS011;5078;42.544;22.966;2024-03-23T05:05:24;16.47;;;12.40;;
10078;SDS011;5078;42.544;22.966;2024-03-23T05:07:50;15.27;;;12.17;;
10078;SDS011;5078;42.544;22.966;2024-03-23T05:10:16;17.73;;;11.90;;
10078;SDS011;5078;42.544;22.966;2024-03-23T05:12:42;19.60;;;13.40;;
10078;SDS011;5078;42.544;22.966;2024-03-23T05:15:11;20.60;;;14.07;;
10078;SDS011;5078;42.544;22.966;2024-03-23T05:17:37;20.80;;;14.73;;
10078;SDS011;5078;42.544;22.966;2024-03-23T05:20:04;30.33;;;20.73;;
10078;SDS011;5078;42.544;22.966;2024-03-23T05:22:34;30.73;;;21.38;;
10078;SDS011;5078;42.544;22.966;2024-03-23T05:25:01;29.00;;;22.30;;
10078;SDS011;5078;42.544;22.966;2024-03-23T05:27:29;27.25;;;21.17;;
10078;SDS011;5078;42.544;22.966;2024-03-23T05:29:56;29.83;;;22.42;;
10078;SDS011;5078;42.544;22.966;2024-03-23T05:32:23;28.55;;;21.58;;
10078;SDS011;5078;42.544;22.966;2024-03-23T05:34:50;38.80;;;27.00;;
10078;SDS011;5078;42.544;22.966;2024-03-23T05:37:20;69.60;;;44.28;;
10078;SDS011;5078;42.544;22.966;2024-03-23T05:39:47;74.78;;;46.30;;
10078;SDS011;5078;42.544;22.966;2024-03-23T05:42:14;43.55;;;33.13;;
10078;SDS011;5078;42.544;22.966;2024-03-23T05:44:42;34.55;;;23.75;;
10078;SDS011;5078;42.544;22.966;2024-03-23T05:47:08;36.10;;;24.25;;
10078;SDS011;5078;42.544;22.966;2024-03-23T05:49:36;33.45;;;22.33;;
10078;SDS011;5078;42.544;22.966;2024-03-23T05:52:02;35.08;;;22.35;;
10078;SDS011;5078;42.544;22.966;2024-03-23T05:54:29;33.58;;;21.65;;
10078;SDS011;5078;42.544;22.966;2024-03-23T05:56:55;37.30;;;19.92;;
10078;SDS011;5078;42.544;22.966;2024-03-23T05:59:22;32.72;;;20.73;;
10078;SDS011;5078;42.544;22.966;2024-03-23T06:01:47;32.20;;;21.88;;
10078;SDS011;5078;42.544;22.966;2024-03-23T06:04:14;27.92;;;18.67;;
10078;SDS011;5078;42.544;22.966;2024-03-23T06:06:41;27.20;;;18.50;;
10078;SDS011;5078;42.544;22.966;2024-03-23T06:09:08;32.40;;;22.08;;
10078;SDS011;5078;42.544;22.966;2024-03-23T06:11:33;28.85;;;21.83;;
10078;SDS011;5078;42.544;22.966;2024-03-23T06:14:00;28.52;;;19.77;;
10078;SDS011;5078;42.544;22.966;2024-03-23T06:16:27;24.30;;;17.27;;
10078;SDS011;5078;42.544;22.966;2024-03-23T06:18:53;15.05;;;12.48;;
10078;SDS011;5078;42.544;22.966;2024-03-23T06:21:20;17.98;;;13.52;;
10078;SDS011;5078;42.544;22.966;2024-03-23T06:23:47;17.40;;;12.50;;
10078;SDS011;5078;42.544;22.966;2024-03-23T06:26:16;12.48;;;10.60;;
10078;SDS011;5078;42.544;22.966;2024-03-23T06:28:42;13.20;;;10.40;;
10078;SDS011;5078;42.544;22.966;2024-03-23T06:31:08;11.82;;;10.50;;
10078;SDS011;5078;42.544;22.966;2024-03-23T06:33:34;11.77;;;9.18;;
10078;SDS011;5078;42.544;22.966;2024-03-23T06:36:01;12.45;;;10.23;;
10078;SDS011;5078;42.544;22.966;2024-03-23T06:38:28;12.30;;;10.15;;
10078;SDS011;5078;42.544;22.966;2024-03-23T06:40:56;10.57;;;9.48;;
10078;SDS011;5078;42.544;22.966;2024-03-23T06:43:22;14.93;;;10.45;;
10078;SDS011;5078;42.544;22.966;2024-03-23T06:45:52;12.13;;;9.95;;
10078;SDS011;5078;42.544;22.966;2024-03-23T06:48:18;11.50;;;9.85;;
10078;SDS011;5078;42.544;22.966;2024-03-23T06:50:54;11.93;;;9.45;;
10078;SDS011;5078;42.544;22.966;2024-03-23T06:53:21;10.63;;;9.43;;
10078;SDS011;5078;42.544;22.966;2024-03-23T06:55:49;11.50;;;10.30;;
10078;SDS011;5078;42.544;22.966;2024-03-23T06:58:18;13.45;;;10.00;;
10078;SDS011;5078;42.544;22.966;2024-03-23T07:00:45;11.95;;;9.63;;
10078;SDS011;5078;42.544;22.966;2024-03-23T07:03:11;13.48;;;9.90;;
10078;SDS011;5078;42.544;22.966;2024-03-23T07:05:38;16.63;;;10.98;;
10078;SDS011;5078;42.544;22.966;2024-03-23T07:08:04;13.15;;;9.77;;
10078;SDS011;5078;42.544;22.966;2024-03-23T07:10:31;16.80;;;10.30;;
10078;SDS011;5078;42.544;22.966;2024-03-23T07:12:57;12.88;;;10.88;;
10078;SDS011;5078;42.544;22.966;2024-03-23T07:15:25;10.55;;;8.50;;
10078;SDS011;5078;42.544;22.966;2024-03-23T07:17:50;16.35;;;11.63;;
10078;SDS011;5078;42.544;22.966;2024-03-23T07:20:17;9.98;;;8.82;;
10078;SDS011;5078;42.544;22.966;2024-03-23T07:22:45;9.55;;;8.43;;
10078;SDS011;5078;42.544;22.966;2024-03-23T07:25:12;8.45;;;7.47;;
10078;SDS011;5078;42.544;22.966;2024-03-23T07:27:38;10.98;;;7.25;;
10078;SDS011;5078;42.544;22.966;2024-03-23T07:30:05;16.38;;;11.15;;
10078;SDS011;5078;42.544;22.966;2024-03-23T07:32:33;11.07;;;9.35;;
10078;SDS011;5078;42.544;22.966;2024-03-23T07:35:00;9.50;;;7.85;;
10078;SDS011;5078;42.544;22.966;2024-03-23T07:37:26;10.07;;;8.10;;
10078;SDS011;5078;42.544;22.966;2024-03-23T07:39:53;13.07;;;10.05;;
10078;SDS011;5078;42.544;22.966;2024-03-23T07:42:19;11.07;;;7.15;;
10078;SDS011;5078;42.544;22.966;2024-03-23T07:44:45;11.02;;;7.63;;
10078;SDS011;5078;42.544;22.966;2024-03-23T07:47:11;9.73;;;8.02;;
10078;SDS011;5078;42.544;22.966;2024-03-23T07:49:39;9.07;;;7.18;;
10078;SDS011;5078;42.544;22.966;2024-03-23T07:52:05;9.35;;;7.10;;
10078;SDS011;5078;42.544;22.966;2024-03-23T07:54:33;8.32;;;7.50;;
10078;SDS011;5078;42.544;22.966;2024-03-23T07:56:59;9.25;;;7.20;;
10078;SDS011;5078;42.544;22.966;2024-03-23T07:59:25;9.27;;;7.45;;
10078;SDS011;5078;42.544;22.966;2024-03-23T08:01:51;7.97;;;6.85;;
10078;SDS011;5078;42.544;22.966;2024-03-23T08:04:18;9.65;;;7.45;;
10078;SDS011;5078;42.544;22.966;2024-03-23T08:06:45;10.35;;;7.75;;
10078;SDS011;5078;42.544;22.966;2024-03-23T08:09:12;8.02;;;7.05;;
10078;SDS011;5078;42.544;22.966;2024-03-23T08:11:38;8.10;;;7.30;;
10078;SDS011;5078;42.544;22.966;2024-03-23T08:14:04;8.23;;;7.43;;
10078;SDS011;5078;42.544;22.966;2024-03-23T08:16:31;7.93;;;7.10;;
10078;SDS011;5078;42.544;22.966;2024-03-23T08:18:59;9.65;;;7.95;;
10078;SDS011;5078;42.544;22.966;2024-03-23T08:21:25;9.40;;;7.55;;
10078;SDS011;5078;42.544;22.966;2024-03-23T08:23:54;9.43;;;8.43;;
10078;SDS011;5078;42.544;22.966;2024-03-23T08:26:22;8.85;;;7.28;;
10078;SDS011;5078;42.544;22.966;2024-03-23T08:28:54;8.98;;;7.25;;
10078;SDS011;5078;42.544;22.966;2024-03-23T08:31:20;11.82;;;9.68;;
10078;SDS011;5078;42.544;22.966;2024-03-23T08:33:47;10.32;;;6.95;;
10078;SDS011;5078;42.544;22.966;2024-03-23T08:36:12;8.43;;;7.07;;
10078;SDS011;5078;42.544;22.966;2024-03-23T08:38:39;7.90;;;6.35;;
10078;SDS011;5078;42.544;22.966;2024-03-23T08:41:07;7.95;;;6.85;;
10078;SDS011;5078;42.544;22.966;2024-03-23T08:43:35;14.27;;;8.88;;
10078;SDS011;5078;42.544;22.966;2024-03-23T08:46:05;8.18;;;7.28;;
10078;SDS011;5078;42.544;22.966;2024-03-23T08:48:34;10.35;;;7.32;;
10078;SDS011;5078;42.544;22.966;2024-03-23T08:51:01;8.18;;;6.88;;
10078;SDS011;5078;42.544;22.966;2024-03-23T08:53:28;6.63;;;6.03;;
10078;SDS011;5078;42.544;22.966;2024-03-23T08:55:54;7.22;;;6.53;;
10078;SDS011;5078;42.544;22.966;2024-03-23T08:58:23;8.93;;;6.47;;
10078;SDS011;5078;42.544;22.966;2024-03-23T09:00:49;8.02;;;6.90;;
10078;SDS011;5078;42.544;22.966;2024-03-23T09:03:16;7.68;;;6.45;;
10078;SDS011;5078;42.544;22.966;2024-03-23T09:05:41;7.10;;;6.40;;
10078;SDS011;5078;42.544;22.966;2024-03-23T09:08:08;7.63;;;6.88;;
10078;SDS011;5078;42.544;22.966;2024-03-23T09:10:37;8.27;;;6.88;;
10078;SDS011;5078;42.544;22.966;2024-03-23T09:13:05;7.80;;;6.60;;
10078;SDS011;5078;42.544;22.966;2024-03-23T09:15:32;7.35;;;6.65;;
10078;SDS011;5078;42.544;22.966;2024-03-23T09:17:59;8.07;;;6.72;;
10078;SDS011;5078;42.544;22.966;2024-03-23T09:20:25;8.75;;;7.68;;
10078;SDS011;5078;42.544;22.966;2024-03-23T09:22:51;11.23;;;6.82;;
10078;SDS011;5078;42.544;22.966;2024-03-23T09:25:17;10.05;;;6.70;;
10078;SDS011;5078;42.544;22.966;2024-03-23T09:27:45;7.20;;;6.50;;
10078;SDS011;5078;42.544;22.966;2024-03-23T09:30:11;8.32;;;7.13;;
10078;SDS011;5078;42.544;22.966;2024-03-23T09:32:40;7.13;;;6.40;;
10078;SDS011;5078;42.544;22.966;2024-03-23T09:35:07;7.15;;;6.43;;
10078;SDS011;5078;42.544;22.966;2024-03-23T09:37:34;7.20;;;6.10;;
10078;SDS011;5078;42.544;22.966;2024-03-23T09:39:59;7.13;;;6.38;;
10078;SDS011;5078;42.544;22.966;2024-03-23T09:42:26;7.13;;;5.68;;
10078;SDS011;5078;42.544;22.966;2024-03-23T09:44:52;7.82;;;6.80;;
10078;SDS011;5078;42.544;22.966;2024-03-23T09:47:19;7.13;;;6.00;;
10078;SDS011;5078;42.544;22.966;2024-03-23T09:49:47;9.15;;;6.45;;
10078;SDS011;5078;42.544;22.966;2024-03-23T09:52:14;6.68;;;5.80;;
10078;SDS011;5078;42.544;22.966;2024-03-23T09:54:39;6.32;;;5.40;;
10078;SDS011;5078;42.544;22.966;2024-03-23T09:57:07;6.03;;;4.97;;
10078;SDS011;5078;42.544;22.966;2024-03-23T09:59:32;5.93;;;5.32;;
10078;SDS011;5078;42.544;22.966;2024-03-23T10:02:00;6.95;;;5.28;;
10078;SDS011;5078;42.544;22.966;2024-03-23T10:04:36;5.95;;;5.15;;
10078;SDS011;5078;42.544;22.966;2024-03-23T10:07:11;5.13;;;4.63;;
10078;SDS011;5078;42.544;22.966;2024-03-23T10:09:38;6.15;;;3.95;;
10078;SDS011;5078;42.544;22.966;2024-03-23T10:12:08;5.97;;;4.45;;
10078;SDS011;5078;42.544;22.966;2024-03-23T10:14:35;5.28;;;4.32;;
10078;SDS011;5078;42.544;22.966;2024-03-23T10:17:12;4.78;;;4.32;;
10078;SDS011;5078;42.544;22.966;2024-03-23T10:19:40;4.50;;;4.10;;
10078;SDS011;5078;42.544;22.966;2024-03-23T10:22:08;5.20;;;4.70;;
10078;SDS011;5078;42.544;22.966;2024-03-23T10:24:36;5.40;;;4.53;;
10078;SDS011;5078;42.544;22.966;2024-03-23T10:27:02;4.82;;;4.32;;
10078;SDS011;5078;42.544;22.966;2024-03-23T10:29:28;4.95;;;4.13;;
10078;SDS011;5078;42.544;22.966;2024-03-23T10:31:58;5.65;;;4.60;;
10078;SDS011;5078;42.544;22.966;2024-03-23T10:34:32;7.93;;;5.10;;
10078;SDS011;5078;42.544;22.966;2024-03-23T10:36:59;5.20;;;4.60;;
10078;SDS011;5078;42.544;22.966;2024-03-23T10:39:27;5.57;;;4.70;;
10078;SDS011;5078;42.544;22.966;2024-03-23T10:41:55;4.72;;;4.22;;
10078;SDS011;5078;42.544;22.966;2024-03-23T10:44:22;5.10;;;4.57;;
10078;SDS011;5078;42.544;22.966;2024-03-23T10:46:50;5.35;;;4.80;;
10078;SDS011;5078;42.544;22.966;2024-03-23T10:49:16;4.82;;;4.40;;
10078;SDS011;5078;42.544;22.966;2024-03-23T10:51:43;6.03;;;4.85;;
10078;SDS011;5078;42.544;22.966;2024-03-23T10:54:09;6.05;;;4.30;;
10078;SDS011;5078;42.544;22.966;2024-03-23T10:56:38;8.18;;;5.07;;
10078;SDS011;5078;42.544;22.966;2024-03-23T10:59:06;5.00;;;4.28;;
10078;SDS011;5078;42.544;22.966;2024-03-23T11:01:34;4.82;;;4.32;;
10078;SDS011;5078;42.544;22.966;2024-03-23T11:04:00;4.60;;;4.20;;
10078;SDS011;5078;42.544;22.966;2024-03-23T11:06:34;5.30;;;4.32;;
10078;SDS011;5078;42.544;22.966;2024-03-23T11:09:00;5.07;;;4.50;;
10078;SDS011;5078;42.544;22.966;2024-03-23T11:11:27;5.13;;;4.63;;
10078;SDS011;5078;42.544;22.966;2024-03-23T11:13:56;5.25;;;4.30;;
10078;SDS011;5078;42.544;22.966;2024-03-23T11:16:24;5.22;;;4.72;;
10078;SDS011;5078;42.544;22.966;2024-03-23T11:18:53;5.43;;;4.30;;
10078;SDS011;5078;42.544;22.966;2024-03-23T11:24:17;5.75;;;4.68;;
10078;SDS011;5078;42.544;22.966;2024-03-23T11:26:44;6.25;;;4.15;;
10078;SDS011;5078;42.544;22.966;2024-03-23T11:29:10;4.78;;;4.38;;
10078;SDS011;5078;42.544;22.966;2024-03-23T11:31:39;4.45;;;4.05;;
10078;SDS011;5078;42.544;22.966;2024-03-23T11:34:11;4.80;;;3.90;;
10078;SDS011;5078;42.544;22.966;2024-03-23T11:36:38;4.35;;;3.90;;
10078;SDS011;5078;42.544;22.966;2024-03-23T11:39:11;5.10;;;3.95;;
10078;SDS011;5078;42.544;22.966;2024-03-23T11:41:45;6.28;;;4.00;;
10078;SDS011;5078;42.544;22.966;2024-03-23T11:44:14;5.13;;;4.53;;
10078;SDS011;5078;42.544;22.966;2024-03-23T11:46:43;4.97;;;4.45;;
10078;SDS011;5078;42.544;22.966;2024-03-23T11:49:19;4.85;;;4.32;;
10078;SDS011;5078;42.544;22.966;2024-03-23T11:51:47;6.68;;;4.78;;
10078;SDS011;5078;42.544;22.966;2024-03-23T11:54:13;5.70;;;4.70;;
10078;SDS011;5078;42.544;22.966;2024-03-23T11:56:39;7.30;;;5.00;;
10078;SDS011;5078;42.544;22.966;2024-03-23T11:59:06;4.00;;;3.60;;
10078;SDS011;5078;42.544;22.966;2024-03-23T12:01:32;6.45;;;4.88;;
10078;SDS011;5078;42.544;22.966;2024-03-23T12:04:00;4.30;;;3.90;;
10078;SDS011;5078;42.544;22.966;2024-03-23T12:06:27;4.20;;;3.90;;
10078;SDS011;5078;42.544;22.966;2024-03-23T12:08:53;4.00;;;3.60;;
10078;SDS011;5078;42.544;22.966;2024-03-23T12:11:19;4.00;;;3.40;;
10078;SDS011;5078;42.544;22.966;2024-03-23T12:13:47;4.45;;;3.95;;
10078;SDS011;5078;42.544;22.966;2024-03-23T12:16:16;4.40;;;4.00;;
10078;SDS011;5078;42.544;22.966;2024-03-23T12:18:43;5.47;;;4.70;;
10078;SDS011;5078;42.544;22.966;2024-03-23T12:21:12;5.10;;;3.90;;
10078;SDS011;5078;42.544;22.966;2024-03-23T12:23:38;4.28;;;3.88;;
10078;SDS011;5078;42.544;22.966;2024-03-23T12:26:06;5.40;;;3.78;;
10078;SDS011;5078;42.544;22.966;2024-03-23T12:28:31;6.25;;;4.72;;
10078;SDS011;5078;42.544;22.966;2024-03-23T12:30:58;4.93;;;4.00;;
10078;SDS011;5078;42.544;22.966;2024-03-23T12:33:24;5.47;;;4.20;;
10078;SDS011;5078;42.544;22.966;2024-03-23T12:35:51;4.90;;;3.92;;
10078;SDS011;5078;42.544;22.966;2024-03-23T12:38:19;4.88;;;3.97;;
10078;SDS011;5078;42.544;22.966;2024-03-23T12:40:46;5.38;;;4.30;;
10078;SDS011;5078;42.544;22.966;2024-03-23T12:43:12;5.85;;;4.05;;
10078;SDS011;5078;42.544;22.966;2024-03-23T12:45:39;5.25;;;4.60;;
10078;SDS011;5078;42.544;22.966;2024-03-23T12:48:05;5.00;;;3.78;;
10078;SDS011;5078;42.544;22.966;2024-03-23T12:50:32;4.18;;;3.78;;
10078;SDS011;5078;42.544;22.966;2024-03-23T12:52:58;6.88;;;4.53;;
10078;SDS011;5078;42.544;22.966;2024-03-23T12:55:27;4.78;;;3.85;;
10078;SDS011;5078;42.544;22.966;2024-03-23T12:57:52;7.57;;;4.30;;
10078;SDS011;5078;42.544;22.966;2024-03-23T13:00:19;4.03;;;3.63;;
10078;SDS011;5078;42.544;22.966;2024-03-23T13:02:45;4.40;;;4.00;;
10078;SDS011;5078;42.544;22.966;2024-03-23T13:05:11;4.00;;;3.60;;
10078;SDS011;5078;42.544;22.966;2024-03-23T13:07:37;5.32;;;4.45;;
10078;SDS011;5078;42.544;22.966;2024-03-23T13:10:04;5.18;;;4.20;;
10078;SDS011;5078;42.544;22.966;2024-03-23T13:12:32;4.15;;;3.65;;
10078;SDS011;5078;42.544;22.966;2024-03-23T13:14:59;5.65;;;4.18;;
10078;SDS011;5078;42.544;22.966;2024-03-23T13:17:25;5.72;;;3.75;;
10078;SDS011;5078;42.544;22.966;2024-03-23T13:19:53;4.38;;;3.90;;
10078;SDS011;5078;42.544;22.966;2024-03-23T13:22:19;6.88;;;4.88;;
10078;SDS011;5078;42.544;22.966;2024-03-23T13:24:45;4.80;;;4.13;;
10078;SDS011;5078;42.544;22.966;2024-03-23T13:27:11;6.03;;;3.80;;
10078;SDS011;5078;42.544;22.966;2024-03-23T13:29:39;4.85;;;4.10;;
10078;SDS011;5078;42.544;22.966;2024-03-23T13:32:05;6.03;;;4.07;;
10078;SDS011;5078;42.544;22.966;2024-03-23T13:34:32;4.03;;;3.63;;
10078;SDS011;5078;42.544;22.966;2024-03-23T13:36:58;7.20;;;4.65;;
10078;SDS011;5078;42.544;22.966;2024-03-23T13:39:25;5.13;;;4.55;;
10078;SDS011;5078;42.544;22.966;2024-03-23T13:41:52;4.75;;;4.25;;
10078;SDS011;5078;42.544;22.966;2024-03-23T13:44:20;3.90;;;3.60;;
10078;SDS011;5078;42.544;22.966;2024-03-23T13:46:48;4.22;;;3.63;;
10078;SDS011;5078;42.544;22.966;2024-03-23T13:49:20;5.28;;;4.15;;
10078;SDS011;5078;42.544;22.966;2024-03-23T13:51:50;5.10;;;3.88;;
10078;SDS011;5078;42.544;22.966;2024-03-23T13:54:17;4.35;;;3.85;;
10078;SDS011;5078;42.544;22.966;2024-03-23T13:56:42;6.15;;;4.30;;
10078;SDS011;5078;42.544;22.966;2024-03-23T13:59:09;5.70;;;4.30;;
10078;SDS011;5078;42.544;22.966;2024-03-23T14:01:35;6.30;;;5.03;;
10078;SDS011;5078;42.544;22.966;2024-03-23T14:04:03;6.18;;;4.55;;
10078;SDS011;5078;42.544;22.966;2024-03-23T14:06:29;3.50;;;3.20;;
10078;SDS011;5078;42.544;22.966;2024-03-23T14:08:56;4.22;;;3.83;;
10078;SDS011;5078;42.544;22.966;2024-03-23T14:11:21;4.88;;;4.20;;
10078;SDS011;5078;42.544;22.966;2024-03-23T14:13:48;4.53;;;3.67;;
10078;SDS011;5078;42.544;22.966;2024-03-23T14:16:14;5.97;;;4.15;;
10078;SDS011;5078;42.544;22.966;2024-03-23T14:18:40;5.30;;;4.57;;
10078;SDS011;5078;42.544;22.966;2024-03-23T14:21:07;5.97;;;4.78;;
10078;SDS011;5078;42.544;22.966;2024-03-23T14:23:35;5.18;;;4.03;;
10078;SDS011;5078;42.544;22.966;2024-03-23T14:26:06;4.85;;;4.10;;
10078;SDS011;5078;42.544;22.966;2024-03-23T14:28:33;4.20;;;3.63;;
10078;SDS011;5078;42.544;22.966;2024-03-23T14:31:00;4.55;;;4.07;;
10078;SDS011;5078;42.544;22.966;2024-03-23T14:33:28;4.55;;;3.95;;
10078;SDS011;5078;42.544;22.966;2024-03-23T14:35:59;5.30;;;4.80;;
10078;SDS011;5078;42.544;22.966;2024-03-23T14:38:28;4.35;;;3.95;;
10078;SDS011;5078;42.544;22.966;2024-03-23T14:40:53;6.85;;;4.10;;
10078;SDS011;5078;42.544;22.966;2024-03-23T14:43:24;4.55;;;3.83;;
10078;SDS011;5078;42.544;22.966;2024-03-23T14:48:32;3.47;;;3.17;;
10078;SDS011;5078;42.544;22.966;2024-03-23T14:50:58;5.13;;;4.03;;
10078;SDS011;5078;42.544;22.966;2024-03-23T14:53:25;3.83;;;3.50;;
10078;SDS011;5078;42.544;22.966;2024-03-23T14:55:55;4.53;;;3.92;;
10078;SDS011;5078;42.544;22.966;2024-03-23T14:58:22;3.92;;;3.63;;
10078;SDS011;5078;42.544;22.966;2024-03-23T15:00:48;6.88;;;3.90;;
10078;SDS011;5078;42.544;22.966;2024-03-23T15:03:14;5.07;;;4.00;;
10078;SDS011;5078;42.544;22.966;2024-03-23T15:05:51;7.32;;;3.85;;
10078;SDS011;5078;42.544;22.966;2024-03-23T15:08:18;6.80;;;3.78;;
10078;SDS011;5078;42.544;22.966;2024-03-23T15:10:44;8.15;;;5.13;;
10078;SDS011;5078;42.544;22.966;2024-03-23T15:13:12;4.00;;;3.60;;
10078;SDS011;5078;42.544;22.966;2024-03-23T15:15:38;3.60;;;3.28;;
10078;SDS011;5078;42.544;22.966;2024-03-23T15:18:06;5.65;;;4.53;;
10078;SDS011;5078;42.544;22.966;2024-03-23T15:20:31;5.45;;;4.30;;
10078;SDS011;5078;42.544;22.966;2024-03-23T15:23:01;4.40;;;4.00;;
10078;SDS011;5078;42.544;22.966;2024-03-23T15:25:27;6.38;;;4.45;;
10078;SDS011;5078;42.544;22.966;2024-03-23T15:27:54;4.40;;;4.00;;
10078;SDS011;5078;42.544;22.966;2024-03-23T15:30:21;3.78;;;3.35;;
10078;SDS011;5078;42.544;22.966;2024-03-23T15:32:48;4.53;;;4.05;;
10078;SDS011;5078;42.544;22.966;2024-03-23T15:35:13;6.20;;;4.75;;